Time;durP1;ratioP1;P1;durP2;ratioP2;P2;SDS_P1;SDS_P2;PMS_P1;PMS_P2;Temp;Humidity;BMP_temperature;BMP_pressure;BME280_temperature;BME280_humidity;BME280_pressure;Samples;Min_cycle;Max_cycle;Signal;HPM_P1;HPM_P2
2023/10/18 00:00:33;245280.00;0.82;423.83;0.00;0.00;0.62;;;;;13.70;1.00;;;;;;2267895;61;1137;-85
2023/10/18 00:03:02;223330.00;0.74;386.07;10877.00;0.04;19.47;;;;;14.00;1.00;;;;;;2268130;61;1395;-85
2023/10/18 00:05:31;141300.00;0.47;244.81;0.00;0.00;0.62;;;;;14.20;1.00;;;;;;2268008;61;1444;-84
2023/10/18 00:08:03;166774.00;0.56;288.71;0.00;0.00;0.62;;;;;14.40;1.00;;;;;;2268071;61;1732;-84
2023/10/18 00:10:30;37331.00;0.12;65.27;0.00;0.00;0.62;;;;;14.70;1.00;;;;;;2268143;61;1910;-86
2023/10/18 00:13:06;127157.00;0.42;220.43;0.00;0.00;0.62;;;;;14.90;1.00;;;;;;2268081;61;2330;-85
2023/10/18 00:15:33;117409.00;0.39;203.61;0.00;0.00;0.62;;;;;14.70;1.00;;;;;;2268176;61;1161;-85
2023/10/18 00:18:06;239456.00;0.80;413.82;0.00;0.00;0.62;;;;;15.00;1.00;;;;;;2268100;61;997;-85
2023/10/18 00:20:36;206017.00;0.69;356.28;43577.00;0.15;76.08;;;;;14.80;1.00;;;;;;2267895;61;1423;-86
2023/10/18 00:23:10;233322.00;0.78;403.26;0.00;0.00;0.62;;;;;14.70;1.00;;;;;;2267835;61;1507;-84
2023/10/18 00:25:37;58197.00;0.19;101.36;0.00;0.00;0.62;;;;;14.50;1.00;;;;;;2267865;61;1028;-87
2023/10/18 00:28:09;103554.00;0.35;179.71;0.00;0.00;0.62;;;;;14.70;1.00;;;;;;2268138;61;1483;-86
2023/10/18 00:30:36;196062.00;0.65;339.14;0.00;0.00;0.62;;;;;14.40;1.00;;;;;;2267883;61;2013;-85
2023/10/18 00:33:06;109688.00;0.37;190.29;0.00;0.00;0.62;;;;;14.40;1.00;;;;;;2267913;61;1377;-85
2023/10/18 00:35:36;52367.00;0.17;91.28;0.00;0.00;0.62;;;;;14.10;1.00;;;;;;2267881;61;1569;-84
2023/10/18 00:38:07;119599.00;0.40;207.39;0.00;0.00;0.62;;;;;14.10;1.00;;;;;;2268007;61;1181;-86
2023/10/18 00:40:40;329963.00;1.10;569.42;17325.00;0.06;30.64;;;;;14.30;1.00;;;;;;2267995;61;1589;-86
2023/10/18 00:43:19;94587.00;0.32;164.23;0.00;0.00;0.62;;;;;14.50;1.00;;;;;;2267886;61;1591;-87
2023/10/18 00:45:50;28674.00;0.10;50.29;0.00;0.00;0.62;;;;;14.70;1.00;;;;;;2268018;61;1535;-86
2023/10/18 00:48:25;73800.00;0.25;128.33;0.00;0.00;0.62;;;;;14.40;1.00;;;;;;2268086;61;1106;-87
2023/10/18 00:50:54;27989.00;0.09;49.10;0.00;0.00;0.62;;;;;14.00;1.00;;;;;;2268014;61;1926;-86
2023/10/18 00:53:23;116972.00;0.39;202.86;0.00;0.00;0.62;;;;;14.10;1.00;;;;;;2267885;61;1407;-84
2023/10/18 00:55:57;106540.00;0.36;184.86;0.00;0.00;0.62;;;;;14.00;1.00;;;;;;2267775;61;1651;-86
2023/10/18 00:58:25;18950.00;0.06;33.45;0.00;0.00;0.62;;;;;14.30;1.00;;;;;;2267901;61;1285;-85
2023/10/18 01:00:53;200843.00;0.67;347.37;0.00;0.00;0.62;;;;;14.30;1.00;;;;;;2268063;61;1173;-86
2023/10/18 01:03:30;302877.00;1.01;522.87;0.00;0.00;0.62;;;;;14.10;1.00;;;;;;2267915;61;1505;-84
2023/10/18 01:06:08;55305.00;0.18;96.36;0.00;0.00;0.62;;;;;13.80;1.00;;;;;;2268015;61;1253;-85
2023/10/18 01:08:37;225727.00;0.75;390.20;0.00;0.00;0.62;;;;;14.20;1.00;;;;;;2268036;61;1566;-85
2023/10/18 01:11:10;81310.00;0.27;141.30;0.00;0.00;0.62;;;;;14.40;1.00;;;;;;2267797;61;1998;-86
2023/10/18 01:13:41;169230.00;0.56;292.94;37807.00;0.13;66.09;;;;;14.40;1.00;;;;;;2268041;61;1146;-86
2023/10/18 01:16:14;57104.00;0.19;99.47;0.00;0.00;0.62;;;;;14.00;1.00;;;;;;2266625;61;1156;-85
2023/10/18 01:18:44;81591.00;0.27;141.79;0.00;0.00;0.62;;;;;13.90;1.00;;;;;;2267985;61;1460;-86
2023/10/18 01:21:19;313299.00;1.04;540.78;47270.00;0.16;82.46;;;;;14.10;1.00;;;;;;2268024;61;1466;-84
2023/10/18 01:23:53;2961.00;0.01;5.75;0.00;0.00;0.62;;;;;14.40;1.00;;;;;;2267868;61;1556;-86
2023/10/18 01:26:25;61346.00;0.20;106.80;0.00;0.00;0.62;;;;;14.10;1.00;;;;;;2267828;61;1593;-86
2023/10/18 01:28:55;321532.00;1.07;554.93;71702.00;0.24;124.70;;;;;13.90;1.00;;;;;;2267993;61;1457;-86
2023/10/18 01:31:23;174001.00;0.58;301.16;38286.00;0.13;66.92;;;;;14.10;1.00;;;;;;2267982;61;1996;-85
2023/10/18 01:33:53;246261.00;0.82;425.52;0.00;0.00;0.62;;;;;14.30;1.00;;;;;;2267949;61;1465;-86
2023/10/18 01:36:23;143128.00;0.48;247.96;0.00;0.00;0.62;;;;;14.60;1.00;;;;;;2267955;61;1062;-86
2023/10/18 01:38:56;104640.00;0.35;181.58;0.00;0.00;0.62;;;;;14.60;1.00;;;;;;2267818;61;1638;-86
2023/10/18 01:41:29;60801.00;0.20;105.86;0.00;0.00;0.62;;;;;14.60;1.00;;;;;;2267689;61;1622;-84
2023/10/18 01:43:58;38368.00;0.13;67.06;0.00;0.00;0.62;;;;;14.20;1.00;;;;;;2267829;61;1208;-85
2023/10/18 01:46:26;18845.00;0.06;33.27;0.00;0.00;0.62;;;;;13.70;1.00;;;;;;2267758;61;1103;-85
2023/10/18 01:48:54;20708.00;0.07;36.50;0.00;0.00;0.62;;;;;13.50;1.00;;;;;;2267726;61;1064;-86
2023/10/18 01:51:21;274591.00;0.92;474.24;0.00;0.00;0.62;;;;;13.80;1.00;;;;;;2267749;61;2015;-86
2023/10/18 01:53:55;370114.00;1.23;638.43;40481.00;0.13;70.72;;;;;14.00;1.00;;;;;;2268003;61;948;-87
2023/10/18 01:56:31;63750.00;0.21;110.96;0.00;0.00;0.62;;;;;14.30;1.00;;;;;;2268492;61;1464;-85
2023/10/18 01:58:58;25116.00;0.08;44.13;0.00;0.00;0.62;;;;;14.50;1.00;;;;;;2268594;61;1494;-85
2023/10/18 02:01:30;127217.00;0.42;220.53;0.00;0.00;0.62;;;;;14.40;1.00;;;;;;2268468;61;1495;-85
2023/10/18 02:03:59;145470.00;0.48;252.00;0.00;0.00;0.62;;;;;14.40;1.00;;;;;;2268377;61;1422;-85
2023/10/18 02:06:27;57756.00;0.19;100.60;0.00;0.00;0.62;;;;;14.60;1.00;;;;;;2268641;61;1424;-86
2023/10/18 02:08:54;247255.00;0.82;427.23;0.00;0.00;0.62;;;;;14.00;1.00;;;;;;2268556;61;1114;-86
2023/10/18 02:11:23;177714.00;0.59;307.55;0.00;0.00;0.62;;;;;13.70;1.00;;;;;;2268482;61;1919;-85
2023/10/18 02:13:54;206799.00;0.69;357.63;51481.00;0.17;89.75;;;;;13.00;1.00;;;;;;2268552;61;1089;-85
2023/10/18 02:16:22;156321.00;0.52;270.70;0.00;0.00;0.62;;;;;12.10;1.00;;;;;;2268463;61;1467;-86
2023/10/18 02:18:57;12582.00;0.04;22.42;0.00;0.00;0.62;;;;;12.40;1.00;;;;;;2268529;61;1566;-84
2023/10/18 02:21:27;258395.00;0.86;446.39;0.00;0.00;0.62;;;;;12.50;1.00;;;;;;2268530;61;1607;-85
2023/10/18 02:24:06;209843.00;0.70;362.87;0.00;0.00;0.62;;;;;12.50;1.00;;;;;;2268564;61;1435;-87
2023/10/18 02:26:35;16737.00;0.06;29.62;0.00;0.00;0.62;;;;;12.70;1.00;;;;;;2268553;61;1476;-86
2023/10/18 02:29:12;155194.00;0.52;268.76;0.00;0.00;0.62;;;;;13.40;1.00;;;;;;2268443;61;1073;-85
2023/10/18 02:31:45;22214.00;0.07;39.10;0.00;0.00;0.62;;;;;13.20;1.00;;;;;;2268425;61;2018;-87
2023/10/18 02:34:15;123760.00;0.41;214.57;0.00;0.00;0.62;;;;;13.60;1.00;;;;;;2267090;61;1546;-87
2023/10/18 02:36:51;226656.00;0.76;391.80;0.00;0.00;0.62;;;;;14.20;1.00;;;;;;2268352;61;1488;-86
2023/10/18 02:39:27;72921.00;0.24;126.81;0.00;0.00;0.62;;;;;14.10;1.00;;;;;;2268427;61;1474;-86
2023/10/18 02:42:04;21420.00;0.07;37.73;0.00;0.00;0.62;;;;;13.20;1.00;;;;;;2268439;61;1487;-85
2023/10/18 02:44:44;196258.00;0.65;339.48;0.00;0.00;0.62;;;;;12.30;1.00;;;;;;2268440;61;1249;-86
2023/10/18 02:47:22;91419.00;0.30;158.76;0.00;0.00;0.62;;;;;11.30;1.00;;;;;;2268465;61;1502;-84
2023/10/18 02:49:51;297782.00;0.99;514.11;82372.00;0.27;143.13;;;;;10.50;1.00;;;;;;2268447;61;1026;-86
2023/10/18 02:52:26;305218.00;1.02;526.89;89469.00;0.30;155.39;;;;;10.20;1.00;;;;;;2268335;61;1931;-85
2023/10/18 02:54:57;409175.00;1.36;705.58;92587.00;0.31;160.77;;;;;10.40;1.00;;;;;;2268405;61;1590;-85
2023/10/18 02:57:26;346318.00;1.15;597.53;71289.00;0.24;123.99;;;;;10.60;1.00;;;;;;2268326;61;1451;-84
2023/10/18 02:59:54;503002.00;1.68;866.99;80877.00;0.27;140.55;;;;;11.00;1.00;;;;;;2268384;61;927;-87
2023/10/18 03:02:24;424595.00;1.42;732.09;72180.00;0.24;125.53;;;;;11.50;1.00;;;;;;2268620;61;1384;-87
2023/10/18 03:04:55;337516.00;1.13;582.40;102710.00;0.34;178.25;;;;;11.90;1.00;;;;;;2268628;61;1582;-85
2023/10/18 03:07:27;430984.00;1.44;743.08;90522.00;0.30;157.21;;;;;12.40;1.00;;;;;;2268572;61;1688;-86
2023/10/18 03:10:03;406893.00;1.36;701.66;88436.00;0.29;153.61;;;;;12.30;1.00;;;;;;2268705;61;1097;-87
2023/10/18 03:12:38;406693.00;1.36;701.31;91531.00;0.31;158.95;;;;;12.00;1.00;;;;;;2268531;61;2010;-87
2023/10/18 03:15:17;497341.00;1.66;857.25;83534.00;0.28;145.14;;;;;12.10;1.00;;;;;;2270996;40;3606;-85
2023/10/18 03:17:48;865779.00;2.89;1496.09;163832.00;0.55;283.64;;;;;12.30;1.00;;;;;;2268578;61;1592;-85
2023/10/18 03:20:24;345532.00;1.15;596.18;90578.00;0.30;157.31;;;;;12.80;1.00;;;;;;2268533;61;1518;-86
2023/10/18 03:22:55;1214154.00;4.05;2115.83;151367.00;0.50;262.16;;;;;13.10;1.00;;;;;;2268527;61;1589;-86
2023/10/18 03:25:35;1291466.00;4.30;2256.50;257399.00;0.86;444.68;;;;;12.90;1.00;;;;;;2268567;61;909;-87
2023/10/18 03:28:17;1099478.00;3.66;1909.49;74755.00;0.25;129.98;;;;;12.50;1.00;;;;;;2268593;61;1316;-88
2023/10/18 03:30:54;1050834.00;3.50;1822.72;55279.00;0.18;96.31;;;;;12.30;1.00;;;;;;2268552;61;1619;-86
2023/10/18 03:33:24;1341856.00;4.47;2348.91;253026.00;0.84;437.16;;;;;11.70;1.00;;;;;;2268513;61;2006;-87
2023/10/18 03:36:06;1223346.00;4.08;2132.49;219097.00;0.73;378.79;;;;;11.60;1.00;;;;;;2268473;61;1703;-86
2023/10/18 03:38:51;1124387.00;3.75;1954.09;99305.00;0.33;172.37;;;;;11.80;1.00;;;;;;2268497;61;1608;-86
2023/10/18 03:41:25;152364.00;0.51;263.88;0.00;0.00;0.62;;;;;11.90;1.00;;;;;;2267385;61;1466;-87
2023/10/18 03:44:09;206810.00;0.69;357.65;0.00;0.00;0.62;;;;;11.60;1.00;;;;;;2268535;61;1119;-87
2023/10/18 03:46:48;160572.00;0.54;278.02;0.00;0.00;0.62;;;;;11.30;1.00;;;;;;2268455;61;949;-86
2023/10/18 03:49:31;237523.00;0.79;410.49;0.00;0.00;0.62;;;;;11.00;1.00;;;;;;2267219;61;1518;-86
2023/10/18 03:52:04;72765.00;0.24;126.54;0.00;0.00;0.62;;;;;11.30;1.00;;;;;;2268419;61;1984;-86
2023/10/18 03:57:18;284145.00;0.95;490.66;0.00;0.00;0.62;;;;;11.90;1.00;;;;;;2268480;61;1042;-86
2023/10/18 03:59:49;111213.00;0.37;192.92;0.00;0.00;0.62;;;;;12.50;1.00;;;;;;2268457;61;1053;-87
2023/10/18 04:02:26;248299.00;0.83;429.03;0.00;0.00;0.62;;;;;12.60;1.00;;;;;;2268411;61;1487;-86
2023/10/18 04:05:21;112083.00;0.37;194.42;0.00;0.00;0.62;;;;;13.20;1.00;;;;;;2268495;61;1118;-85
2023/10/18 04:07:53;122392.00;0.41;212.21;0.00;0.00;0.62;;;;;13.40;1.00;;;;;;2268496;61;997;-86
2023/10/18 04:10:41;156825.00;0.52;271.57;13550.00;0.05;24.10;;;;;13.10;1.00;;;;;;2268462;61;1423;-85
2023/10/18 04:13:12;406532.00;1.36;701.03;0.00;0.00;0.62;;;;;13.10;1.00;;;;;;2268394;61;1914;-85
2023/10/18 04:15:49;293615.00;0.98;506.94;0.00;0.00;0.62;;;;;12.90;1.00;;;;;;2268263;61;1487;-87
2023/10/18 04:18:26;94742.00;0.32;164.50;0.00;0.00;0.62;;;;;12.60;1.00;;;;;;2268561;61;1432;-86
2023/10/18 04:20:53;204517.00;0.68;353.70;0.00;0.00;0.62;;;;;12.80;1.00;;;;;;2268539;61;1275;-87
2023/10/18 04:23:27;259069.00;0.86;447.55;0.00;0.00;0.62;;;;;13.00;1.00;;;;;;2268484;61;1473;-87
2023/10/18 04:25:58;257747.00;0.86;445.27;0.00;0.00;0.62;;;;;12.90;1.00;;;;;;2268435;61;1595;-86
2023/10/18 04:28:37;1484.00;0.00;3.19;0.00;0.00;0.62;;;;;12.90;1.00;;;;;;2268530;61;1000;-85
2023/10/18 04:31:08;21694.00;0.07;38.20;0.00;0.00;0.62;;;;;12.90;1.00;;;;;;2268477;61;1541;-86
2023/10/18 04:33:43;211139.00;0.70;365.10;29396.00;0.10;51.54;;;;;12.90;1.00;;;;;;2268428;61;1919;-84
2023/10/18 04:36:15;155139.00;0.52;268.66;0.00;0.00;0.62;;;;;13.00;1.00;;;;;;2268350;61;1449;-86
2023/10/18 04:38:44;207962.00;0.69;359.63;0.00;0.00;0.62;;;;;13.20;1.00;;;;;;2268394;61;1557;-87
2023/10/18 04:41:28;171522.00;0.57;296.89;0.00;0.00;0.62;;;;;13.00;1.00;;;;;;2268429;61;1371;-87
2023/10/18 04:44:04;98437.00;0.33;170.87;0.00;0.00;0.62;;;;;13.10;1.00;;;;;;2268335;61;1553;-86
2023/10/18 04:46:32;44213.00;0.15;77.18;0.00;0.00;0.62;;;;;12.90;1.00;;;;;;2268313;61;1569;-86
2023/10/18 04:49:31;328372.00;1.09;566.69;29499.00;0.10;51.72;;;;;12.60;1.00;;;;;;2268419;61;1689;-87
2023/10/18 04:52:06;4885.00;0.02;9.09;0.00;0.00;0.62;;;;;12.70;1.00;;;;;;2268460;61;2009;-86
2023/10/18 04:54:41;25843.00;0.09;45.39;0.00;0.00;0.62;;;;;13.10;1.00;;;;;;2268468;61;1003;-85
2023/10/18 04:57:16;146583.00;0.49;253.92;0.00;0.00;0.62;;;;;13.40;1.00;;;;;;2268352;61;1675;-86
2023/10/18 04:59:52;179181.00;0.60;310.08;0.00;0.00;0.62;;;;;13.60;1.00;;;;;;2268483;61;957;-85
2023/10/18 05:02:26;135302.00;0.45;234.47;0.00;0.00;0.62;;;;;13.40;1.00;;;;;;2268250;61;1484;-85
2023/10/18 05:05:10;101922.00;0.34;176.89;0.00;0.00;0.62;;;;;13.10;1.00;;;;;;2268235;61;1732;-85
2023/10/18 05:07:47;46801.00;0.16;81.65;0.00;0.00;0.62;;;;;13.00;1.00;;;;;;2268492;61;1114;-85
2023/10/18 05:10:20;258602.00;0.86;446.74;0.00;0.00;0.62;;;;;12.80;1.00;;;;;;2267136;61;1399;-86
2023/10/18 05:12:53;12105.00;0.04;21.60;0.00;0.00;0.62;;;;;12.90;1.00;;;;;;2265889;61;2022;-86
2023/10/18 05:15:31;43132.00;0.14;75.31;0.00;0.00;0.62;;;;;12.80;1.00;;;;;;2264309;61;1531;-85
2023/10/18 05:18:04;59845.00;0.20;104.21;0.00;0.00;0.62;;;;;12.80;1.00;;;;;;2264372;61;1036;-86
2023/10/18 05:23:22;110284.00;0.37;191.32;0.00;0.00;0.62;;;;;13.10;1.00;;;;;;2263898;61;1314;-87
2023/10/18 05:25:53;79786.00;0.27;138.67;0.00;0.00;0.62;;;;;13.10;1.00;;;;;;2264339;61;1571;-87
2023/10/18 05:28:28;102020.00;0.34;177.06;0.00;0.00;0.62;;;;;12.70;1.00;;;;;;2264827;61;1845;-86
2023/10/18 05:31:26;38557.00;0.13;67.39;0.00;0.00;0.62;;;;;12.70;1.00;;;;;;2269066;61;1519;-86
2023/10/18 05:34:01;0.00;0.00;0.62;0.00;0.00;0.62;;;;;12.60;1.00;;;;;;2268653;61;1993;-84
2023/10/18 05:36:34;187193.00;0.62;323.88;0.00;0.00;0.62;;;;;13.00;1.00;;;;;;2268945;61;1127;-85
2023/10/18 05:39:27;17613.00;0.06;31.14;0.00;0.00;0.62;;;;;12.90;1.00;;;;;;2269060;61;1092;-86
2023/10/18 05:41:59;35259.00;0.12;61.68;0.00;0.00;0.62;;;;;13.00;1.00;;;;;;2264994;61;1882;-85
2023/10/18 05:44:27;0.00;0.00;0.62;0.00;0.00;0.62;;;;;12.20;1.00;;;;;;2265004;61;1575;-88
2023/10/18 05:46:57;8680.00;0.03;15.66;0.00;0.00;0.62;;;;;11.80;1.00;;;;;;2266382;61;1778;-85
2023/10/18 05:49:28;0.00;0.00;0.62;0.00;0.00;0.62;;;;;11.60;1.00;;;;;;2269050;61;1703;-84
2023/10/18 05:52:15;74318.00;0.25;129.22;0.00;0.00;0.62;;;;;11.30;1.00;;;;;;2268997;61;1498;-85
2023/10/18 05:54:44;0.00;0.00;0.62;0.00;0.00;0.62;;;;;11.60;1.00;;;;;;2268712;61;1310;-83
2023/10/18 05:57:19;198161.00;0.66;342.76;0.00;0.00;0.62;;;;;10.90;1.00;;;;;;2268954;61;1121;-84
2023/10/18 05:59:50;23513.00;0.08;41.35;0.00;0.00;0.62;;;;;10.80;1.00;;;;;;2268136;61;1234;-84
2023/10/18 06:02:22;101562.00;0.34;176.27;0.00;0.00;0.62;;;;;11.20;1.00;;;;;;2265009;61;1359;-83
2023/10/18 06:04:55;179434.00;0.60;310.51;14163.00;0.05;25.16;;;;;10.90;1.00;;;;;;2264904;61;1010;-85
2023/10/18 06:07:24;32998.00;0.11;57.77;0.00;0.00;0.62;;;;;11.40;1.00;;;;;;2268178;61;1829;-86
2023/10/18 06:09:57;233685.00;0.78;403.89;0.00;0.00;0.62;;;;;10.80;1.00;;;;;;2268985;61;1178;-85
2023/10/18 06:12:27;0.00;0.00;0.62;0.00;0.00;0.62;;;;;10.90;1.00;;;;;;2268796;61;1998;-84
2023/10/18 06:15:10;7852.00;0.03;14.23;0.00;0.00;0.62;;;;;11.50;1.00;;;;;;2268667;61;1141;-86
2023/10/18 06:17:46;200097.00;0.67;346.09;97673.00;0.33;169.56;;;;;11.90;1.00;;;;;;2268692;61;1596;-86
2023/10/18 06:20:27;410336.00;1.37;707.57;86268.00;0.29;149.86;;;;;12.00;1.00;;;;;;2268735;61;1534;-87
2023/10/18 06:23:09;537289.00;1.79;926.05;104582.00;0.35;181.48;;;;;12.00;1.00;;;;;;2268826;61;1435;-87
2023/10/18 06:25:50;1247711.00;4.16;2176.72;182478.00;0.61;315.76;;;;;11.70;1.00;;;;;;2268817;61;1278;-86
2023/10/18 06:28:21;433185.00;1.44;746.86;103604.00;0.35;179.79;;;;;11.40;1.00;;;;;;2268823;61;1153;-87
2023/10/18 06:30:53;121512832.00;405.04;72683504.00;154607.00;0.52;267.75;;;;;11.40;1.00;;;;;;2268701;61;1721;-87
2023/10/18 06:33:27;422173.00;1.41;727.93;87501.00;0.29;151.99;;;;;10.90;1.00;;;;;;2268650;61;1912;-85
2023/10/18 06:36:12;356896.00;1.19;615.71;75735.00;0.25;131.67;;;;;11.20;1.00;;;;;;2268757;61;1546;-84
2023/10/18 06:38:50;691900.00;2.31;1193.20;86022.00;0.29;149.44;;;;;11.90;1.00;;;;;;2268625;61;1484;-86
2023/10/18 06:44:27;1452861.00;4.84;2554.73;194924.00;0.65;337.19;;;;;11.90;1.00;;;;;;2268599;61;1360;-88
2023/10/18 06:46:57;629775.00;2.10;1085.66;100499.00;0.33;174.43;;;;;12.00;1.00;;;;;;2268700;61;1051;-87
2023/10/18 06:49:27;348969.00;1.16;602.09;87814.00;0.29;152.53;;;;;11.60;1.00;;;;;;2268591;61;1412;-87
2023/10/18 06:51:56;120683688.00;402.28;71204400.00;76980.00;0.26;133.82;;;;;10.60;1.00;;;;;;2279536;41;3598;-87
2023/10/18 06:54:38;328602.00;1.10;567.08;89875.00;0.30;156.09;;;;;9.70;1.00;;;;;;2272734;61;2037;-86
2023/10/18 06:57:19;335721.00;1.12;579.32;126456.00;0.42;219.22;;;;;8.90;1.00;;;;;;2272735;61;1038;-89
2023/10/18 06:59:50;243638.00;0.81;421.01;82862.00;0.28;143.98;;;;;8.40;1.00;;;;;;2272792;61;1032;-87
2023/10/18 07:02:26;275591.00;0.92;475.96;83921.00;0.28;145.81;;;;;8.40;1.00;;;;;;2375236;40;3693;-87
2023/10/18 07:05:00;364835.00;1.22;629.36;66672.00;0.22;116.01;;;;;8.60;1.00;;;;;;2268685;61;1454;-87
2023/10/18 07:07:37;205997.00;0.69;356.25;85759.00;0.29;148.98;;;;;8.70;1.00;;;;;;2268687;61;1212;-86
2023/10/18 07:10:19;238241.00;0.79;411.73;87247.00;0.29;151.55;;;;;8.90;1.00;;;;;;2268628;61;1621;-88
2023/10/18 07:12:52;413838.00;1.38;713.60;77873.00;0.26;135.36;;;;;9.30;1.00;;;;;;2268587;61;1919;-87
2023/10/18 07:15:28;521631.00;1.74;899.07;121373.00;0.40;210.45;;;;;8.90;1.00;;;;;;2268597;61;1534;-87
2023/10/18 07:17:55;125445552.00;418.15;79978680.00;86149.00;0.29;149.66;;;;;8.80;1.00;;;;;;2268712;61;1154;-87
2023/10/18 07:30:36;668384.00;2.23;1152.45;86532.00;0.29;150.32;;;;;9.20;1.00;;;;;;2270397;61;1246;-86
2023/10/18 07:33:12;1169898.00;3.90;2035.89;199923.00;0.67;345.79;;;;;8.80;1.00;;;;;;2268212;61;1913;-85
2023/10/18 07:36:08;1391290.00;4.64;2440.18;214927.00;0.72;371.61;;;;;8.50;1.00;;;;;;2268316;61;1455;-86
2023/10/18 07:38:56;302213.00;1.01;521.72;16530.00;0.06;29.26;;;;;8.90;1.00;;;;;;2267585;61;1627;-86
2023/10/18 07:41:41;191118.00;0.64;330.63;0.00;0.00;0.62;;;;;9.30;1.00;;;;;;2268375;61;1514;-85
2023/10/18 07:44:18;264353.00;0.88;456.63;6447.00;0.02;11.79;;;;;9.50;1.00;;;;;;2268404;61;1448;-87
2023/10/18 07:47:07;141513.00;0.47;245.18;0.00;0.00;0.62;;;;;9.70;1.00;;;;;;2268353;61;1536;-86
2023/10/18 07:49:36;119206.00;0.40;206.71;0.00;0.00;0.62;;;;;10.00;1.00;;;;;;2268454;61;819;-86
2023/10/18 07:52:24;;;;;;;;;;;;;;;;;;;;;
2023/10/18 07:55:02;111974.00;0.37;194.24;0.00;0.00;0.62;;;;;10.50;1.00;;;;;;2268400;61;1975;-87
2023/10/18 07:58:03;287237.00;0.96;495.98;42341.00;0.14;73.94;;;;;10.40;1.00;;;;;;2268354;61;1609;-86
2023/10/18 08:01:07;529483.00;1.76;912.60;102401.00;0.34;177.72;;;;;10.50;1.00;;;;;;2267047;61;1622;-87
2023/10/18 08:06:57;1438296.00;4.79;2527.54;157508.00;0.53;272.75;;;;;11.10;1.00;;;;;;2268066;61;1782;-85
2023/10/18 08:09:39;254528.00;0.85;439.74;0.00;0.00;0.62;;;;;11.60;1.00;;;;;;2267373;61;1559;-85
2023/10/18 08:12:28;88304.00;0.29;153.38;0.00;0.00;0.62;;;;;11.40;1.00;;;;;;2268191;61;1625;-86
2023/10/18 08:15:16;69526.00;0.23;120.94;0.00;0.00;0.62;;;;;11.50;1.00;;;;;;2268179;61;2075;-87
2023/10/18 08:18:00;36139.00;0.12;63.21;0.00;0.00;0.62;;;;;11.90;1.00;;;;;;2268286;61;1529;-85
2023/10/18 08:24:07;335079.00;1.12;578.22;73618.00;0.25;128.01;;;;;11.70;1.00;;;;;;2268037;61;1092;-86
2023/10/18 08:26:51;590415.00;1.97;1017.67;83089.00;0.28;144.37;;;;;11.80;1.00;;;;;;2268252;61;1475;-85
2023/10/18 08:29:49;1396122.00;4.65;2449.13;229649.00;0.77;396.94;;;;;11.80;1.00;;;;;;2268169;61;1455;-85
2023/10/18 08:35:50;;;;;;;;;;;;;;;;;;;;;
2023/10/18 08:38:41;58658.00;0.20;102.16;0.00;0.00;0.62;;;;;12.80;1.00;;;;;;2268278;61;1315;-87
2023/10/18 08:41:21;332770.00;1.11;574.25;69375.00;0.23;120.68;;;;;13.00;1.00;;;;;;2268080;61;1504;-85
2023/10/18 08:44:15;105082.00;0.35;182.34;0.00;0.00;0.62;;;;;13.10;1.00;;;;;;2268341;61;1568;-88
2023/10/18 08:47:12;534299.00;1.78;920.90;115020.00;0.38;199.49;;;;;13.10;1.00;;;;;;2268264;61;1127;-86
2023/10/18 08:49:53;1151859.00;3.84;2003.42;164996.00;0.55;285.65;;;;;13.10;1.00;;;;;;2268211;61;1618;-87
2023/10/18 08:52:56;945855.00;3.15;1636.80;40361.00;0.13;70.51;;;;;12.80;1.00;;;;;;2273044;48;1724;-86
2023/10/18 08:55:51;98611.00;0.33;171.17;0.00;0.00;0.62;;;;;12.30;1.00;;;;;;2271083;61;1427;-87
2023/10/18 08:58:35;114045.00;0.38;197.81;0.00;0.00;0.62;;;;;12.30;1.00;;;;;;2272219;61;1533;-87
2023/10/18 09:01:34;179756.00;0.60;311.07;0.00;0.00;0.62;;;;;12.40;1.00;;;;;;2272174;61;1393;-88
2023/10/18 09:04:17;151138.00;0.50;261.77;0.00;0.00;0.62;;;;;12.90;1.00;;;;;;2268196;61;1179;-88
2023/10/18 09:07:20;206777.00;0.69;357.59;0.00;0.00;0.62;;;;;13.30;1.00;;;;;;2268899;61;2272;-85
2023/10/18 09:16:19;336512.00;1.12;580.68;50325.00;0.17;87.75;;;;;13.90;1.00;;;;;;2268787;61;1312;-86
2023/10/18 09:19:27;0.00;0.00;0.62;0.00;0.00;0.62;;;;;14.10;1.00;;;;;;2268771;61;1057;-87
2023/10/18 09:22:45;204727.00;0.68;354.06;34690.00;0.12;60.70;;;;;14.30;1.00;;;;;;2268881;61;1567;-88
2023/10/18 09:25:25;231538.00;0.77;400.19;80357.00;0.27;139.65;;;;;14.10;1.00;;;;;;2267553;61;1535;-87
2023/10/18 09:28:10;621896.00;2.07;1072.04;154883.00;0.52;268.22;;;;;14.20;1.00;;;;;;2268949;61;1432;-87
2023/10/18 09:31:10;966994.00;3.22;1674.10;131999.00;0.44;228.78;;;;;14.40;1.00;;;;;;2268849;61;1569;-88
2023/10/18 09:33:52;335354.00;1.12;578.69;49210.00;0.16;85.82;;;;;14.20;1.00;;;;;;2268321;61;2005;-85
2023/10/18 09:36:53;95752.00;0.32;166.24;0.00;0.00;0.62;;;;;13.70;1.00;;;;;;2268942;61;912;-85
2023/10/18 09:39:42;451034.00;1.50;777.56;0.00;0.00;0.62;;;;;13.20;1.00;;;;;;2266585;61;1548;-85
2023/10/18 09:45:08;289424.00;0.96;499.74;0.00;0.00;0.62;;;;;13.50;1.00;;;;;;2268125;61;1127;-86
2023/10/18 09:47:45;232474.00;0.77;401.80;0.00;0.00;0.62;;;;;14.00;1.00;;;;;;2268802;61;1250;-86
2023/10/18 09:50:36;206773.00;0.69;357.58;0.00;0.00;0.62;;;;;14.10;1.00;;;;;;2268776;61;1456;-87
2023/10/18 09:53:07;217029.00;0.72;375.23;87974.00;0.29;152.81;;;;;13.90;1.00;;;;;;2268672;61;1443;-86
2023/10/18 09:55:41;359817.00;1.20;620.73;79703.00;0.27;138.52;;;;;14.30;1.00;;;;;;2268718;61;2005;-87
2023/10/18 10:01:30;1233687.00;4.11;2151.25;171644.00;0.57;297.10;;;;;14.40;1.00;;;;;;2266613;61;1124;-86
2023/10/18 10:04:12;213779.00;0.71;369.64;0.00;0.00;0.62;;;;;15.00;1.00;;;;;;2268632;61;1594;-85
2023/10/18 10:06:52;105016.00;0.35;182.23;0.00;0.00;0.62;;;;;15.40;1.00;;;;;;2268728;61;1371;-86
2023/10/18 10:09:38;11701.00;0.04;20.90;0.00;0.00;0.62;;;;;15.60;1.00;;;;;;2268825;61;1478;-87
2023/10/18 10:12:27;61223.00;0.20;106.59;0.00;0.00;0.62;;;;;15.40;1.00;;;;;;2268867;61;1361;-87
2023/10/18 10:14:54;219303.00;0.73;379.14;0.00;0.00;0.62;;;;;15.10;1.00;;;;;;2268331;61;2005;-88
2023/10/18 10:17:31;112356.00;0.37;194.90;0.00;0.00;0.62;;;;;15.00;1.00;;;;;;2268626;61;1413;-87
2023/10/18 10:20:22;231760.00;0.77;400.58;0.00;0.00;0.62;;;;;15.00;1.00;;;;;;2268695;61;1468;-88
2023/10/18 10:22:52;328900.00;1.10;567.60;0.00;0.00;0.62;;;;;15.00;1.00;;;;;;2266644;61;1649;-86
2023/10/18 10:25:31;255011.00;0.85;440.57;49462.00;0.16;86.26;;;;;15.00;1.00;;;;;;2268725;61;1126;-87
2023/10/18 10:27:59;19601.00;0.07;34.58;0.00;0.00;0.62;;;;;15.20;1.00;;;;;;2268836;61;1438;-85
2023/10/18 10:30:38;358387.00;1.19;618.28;70299.00;0.23;122.28;;;;;14.90;1.00;;;;;;2268656;61;1440;-87
2023/10/18 10:33:13;223843.00;0.75;386.96;0.00;0.00;0.62;;;;;14.70;1.00;;;;;;2268691;61;1357;-85
2023/10/18 10:36:07;163948.00;0.55;283.84;0.00;0.00;0.62;;;;;14.90;1.00;;;;;;2268525;61;1936;-86
2023/10/18 10:38:51;429206.00;1.43;740.02;0.00;0.00;0.62;;;;;15.40;1.00;;;;;;2268632;61;1479;-86
2023/10/18 10:41:30;532516.00;1.78;917.83;77247.00;0.26;134.28;;;;;15.80;1.00;;;;;;2268384;61;1548;-86
2023/10/18 10:44:30;368137.00;1.23;635.03;93536.00;0.31;162.41;;;;;15.90;1.00;;;;;;2268662;61;1684;-87
2023/10/18 10:47:42;560377.00;1.87;965.85;97173.00;0.32;168.69;;;;;15.50;1.00;;;;;;2268576;61;1598;-87
2023/10/18 10:50:29;351018.00;1.17;605.61;19393.00;0.06;34.22;;;;;15.70;1.00;;;;;;2268650;61;1468;-86
2023/10/18 10:53:05;145921.00;0.49;252.78;0.00;0.00;0.62;;;;;16.00;1.00;;;;;;2268424;61;1356;-86
2023/10/18 10:55:35;170893.00;0.57;295.80;35136.00;0.12;61.47;;;;;15.50;1.00;;;;;;2268753;61;2005;-85
2023/10/18 10:58:15;259488.00;0.86;448.27;19093.00;0.06;33.70;;;;;15.20;1.00;;;;;;2268714;61;1057;-86
2023/10/18 11:01:12;149195.00;0.50;258.42;0.00;0.00;0.62;;;;;15.30;1.00;;;;;;2268533;61;1420;-87
2023/10/18 11:03:54;70736.00;0.24;123.03;0.00;0.00;0.62;;;;;15.90;1.00;;;;;;2268514;61;1091;-86
2023/10/18 11:06:32;247073.00;0.82;426.92;0.00;0.00;0.62;;;;;16.30;1.00;;;;;;2267424;61;1561;-86
2023/10/18 11:09:02;154130.00;0.51;266.92;0.00;0.00;0.62;;;;;16.30;1.00;;;;;;2268474;61;1610;-87
2023/10/18 11:11:49;365070.00;1.22;629.76;63013.00;0.21;109.69;;;;;16.70;1.00;;;;;;2268396;61;1556;-86